createdAt,value
2023-03-03T00:02:16.278Z,18.53
2023-03-03T00:04:48.790Z,18.27
2023-03-03T00:07:23.467Z,16.70
2023-03-03T00:09:56.337Z,21.03
2023-03-03T00:12:28.689Z,22.60
2023-03-03T00:14:58.897Z,20.97
2023-03-03T00:17:30.339Z,22.27
2023-03-03T00:20:06.179Z,18.20
2023-03-03T00:22:40.403Z,21.33
2023-03-03T00:25:31.003Z,23.57
2023-03-03T00:28:08.388Z,20.53
2023-03-03T00:30:38.311Z,20.40
2023-03-03T00:33:23.546Z,21.47
2023-03-03T00:35:55.945Z,20.80
2023-03-03T00:38:26.343Z,20.97
2023-03-03T00:40:56.504Z,19.43
2023-03-03T00:43:28.147Z,17.20
2023-03-03T00:45:59.545Z,15.63
2023-03-03T00:48:31.426Z,15.30
2023-03-03T00:51:12.067Z,16.50
2023-03-03T00:53:42.213Z,16.73
2023-03-03T00:56:11.993Z,15.27
2023-03-03T00:58:41.956Z,13.97
2023-03-03T01:01:11.774Z,13.73
2023-03-03T01:03:41.650Z,16.00
2023-03-03T01:06:15.525Z,11.73
2023-03-03T01:08:45.240Z,16.40
2023-03-03T01:11:19.363Z,15.23
2023-03-03T01:13:52.819Z,15.17
2023-03-03T01:16:23.543Z,15.43
2023-03-03T01:18:55.254Z,14.67
2023-03-03T01:21:28.037Z,15.80
2023-03-03T01:23:58.246Z,16.00
2023-03-03T01:26:31.643Z,18.10
2023-03-03T01:29:01.325Z,19.83
2023-03-03T01:31:31.322Z,16.37
2023-03-03T01:34:01.242Z,16.67
2023-03-03T01:36:33.678Z,14.80
2023-03-03T01:39:04.095Z,17.50
2023-03-03T01:41:35.369Z,13.43
2023-03-03T01:44:05.463Z,13.00
2023-03-03T01:46:44.622Z,15.10
2023-03-03T01:49:18.505Z,14.73
2023-03-03T01:51:58.144Z,16.53
2023-03-03T01:54:33.358Z,16.83
2023-03-03T01:57:08.546Z,15.10
2023-03-03T01:59:47.426Z,13.57
2023-03-03T02:02:17.386Z,14.23
2023-03-03T02:04:47.332Z,15.17
2023-03-03T02:07:22.108Z,16.13
2023-03-03T02:10:02.137Z,15.33
2023-03-03T02:12:36.674Z,16.67
2023-03-03T02:15:19.431Z,18.53
2023-03-03T02:17:51.242Z,10.37
2023-03-03T02:20:31.832Z,17.53
2023-03-03T02:23:10.791Z,18.40
2023-03-03T02:25:47.238Z,13.07
2023-03-03T02:28:20.130Z,14.30
2023-03-03T02:30:50.423Z,12.63
2023-03-03T02:33:20.204Z,13.60
2023-03-03T02:35:50.396Z,12.97
2023-03-03T02:38:28.858Z,13.80
2023-03-03T02:41:10.227Z,14.97
2023-03-03T02:43:48.803Z,14.17
2023-03-03T02:46:19.307Z,16.97
2023-03-03T02:48:49.273Z,17.33
2023-03-03T02:51:19.136Z,17.90
2023-03-03T02:53:49.046Z,18.50
2023-03-03T02:56:19.408Z,17.80
2023-03-03T02:58:51.952Z,16.60
2023-03-03T03:01:22.441Z,17.93
2023-03-03T03:03:52.490Z,18.80
2023-03-03T03:06:23.682Z,17.80
2023-03-03T03:08:56.461Z,18.00
2023-03-03T03:11:26.283Z,17.93
2023-03-03T03:14:00.104Z,18.17
2023-03-03T03:16:30.163Z,19.37
2023-03-03T03:19:00.155Z,19.40
2023-03-03T03:21:30.182Z,18.00
2023-03-03T03:24:00.660Z,17.73
2023-03-03T03:26:30.527Z,15.80
2023-03-03T03:29:03.218Z,16.03
2023-03-03T03:31:33.862Z,15.87
2023-03-03T03:34:03.615Z,15.60
2023-03-03T03:36:35.703Z,15.53
2023-03-03T03:39:06.459Z,14.53
2023-03-03T03:41:36.505Z,14.50
2023-03-03T03:44:08.956Z,14.73
2023-03-03T03:46:38.824Z,15.63
2023-03-03T03:49:08.921Z,13.37
2023-03-03T03:51:41.588Z,15.13
2023-03-03T03:54:11.629Z,16.03
2023-03-03T03:56:41.611Z,16.83
2023-03-03T03:59:14.086Z,18.27
2023-03-03T04:01:44.099Z,15.40
2023-03-03T04:04:14.111Z,17.10
2023-03-03T04:06:44.128Z,13.87
2023-03-03T04:09:14.073Z,19.07
2023-03-03T04:11:44.196Z,15.97
2023-03-03T04:14:16.798Z,17.30
2023-03-03T04:16:46.898Z,18.57
2023-03-03T04:19:16.779Z,17.50
2023-03-03T04:21:46.669Z,16.77
2023-03-03T04:24:16.933Z,20.43
2023-03-03T04:26:51.482Z,19.97
2023-03-03T04:29:24.118Z,18.53
2023-03-03T04:31:54.119Z,18.00
2023-03-03T04:34:24.114Z,19.17
2023-03-03T04:36:54.061Z,17.57
2023-03-03T04:39:24.050Z,18.67
2023-03-03T04:41:53.951Z,18.60
2023-03-03T04:44:27.630Z,15.33
2023-03-03T04:46:57.589Z,16.70
2023-03-03T04:49:27.715Z,16.37
2023-03-03T04:51:57.712Z,16.60
2023-03-03T04:54:27.928Z,16.00
2023-03-03T04:56:58.745Z,15.83
2023-03-03T04:59:31.630Z,16.33
2023-03-03T05:02:01.559Z,16.70
2023-03-03T05:04:33.354Z,16.23
2023-03-03T05:07:03.372Z,15.27
2023-03-03T05:09:33.554Z,15.33
2023-03-03T05:12:03.592Z,15.83
2023-03-03T05:14:36.159Z,16.10
2023-03-03T05:17:06.252Z,13.90
2023-03-03T05:19:36.590Z,14.97
2023-03-03T05:22:07.928Z,15.43
2023-03-03T05:24:37.887Z,14.90
2023-03-03T05:27:07.992Z,16.67
2023-03-03T05:29:40.705Z,14.17
2023-03-03T05:32:11.024Z,15.83
2023-03-03T05:34:41.459Z,15.23
2023-03-03T05:37:11.701Z,17.10
2023-03-03T05:39:42.078Z,15.53
2023-03-03T05:42:12.431Z,16.10
2023-03-03T05:44:45.572Z,16.03
2023-03-03T05:47:15.768Z,15.40
2023-03-03T05:49:45.719Z,16.07
2023-03-03T05:52:15.592Z,18.10
2023-03-03T05:54:45.486Z,16.33
2023-03-03T05:57:15.693Z,16.60
2023-03-03T05:59:48.279Z,17.50
2023-03-03T06:02:18.287Z,17.00
2023-03-03T06:04:48.531Z,17.30
2023-03-03T06:07:18.448Z,17.70
2023-03-03T06:09:48.386Z,18.30
2023-03-03T06:12:18.744Z,15.90
2023-03-03T06:14:51.338Z,15.67
2023-03-03T06:17:21.534Z,15.83
2023-03-03T06:19:51.800Z,16.50
2023-03-03T06:22:21.761Z,15.10
2023-03-03T06:24:55.663Z,15.83
2023-03-03T06:27:25.624Z,16.23
2023-03-03T06:29:58.356Z,14.07
2023-03-03T06:32:30.645Z,15.27
2023-03-03T06:35:00.663Z,14.37
2023-03-03T06:37:30.687Z,15.03
2023-03-03T06:40:01.097Z,16.57
2023-03-03T06:42:31.337Z,17.07
2023-03-03T06:45:04.061Z,17.17
2023-03-03T06:47:34.158Z,18.93
2023-03-03T06:50:04.255Z,18.53
2023-03-03T06:52:34.452Z,18.63
2023-03-03T06:55:16.292Z,20.13
2023-03-03T06:57:46.411Z,20.83
2023-03-03T07:00:23.217Z,19.97
2023-03-03T07:03:00.453Z,20.20
2023-03-03T07:05:33.290Z,19.00
2023-03-03T07:08:04.419Z,16.47
2023-03-03T07:10:35.890Z,19.63
2023-03-03T07:13:19.276Z,18.30
2023-03-03T07:15:53.443Z,19.47
2023-03-03T07:18:35.252Z,16.80
2023-03-03T07:21:17.698Z,20.43
2023-03-03T07:23:49.418Z,18.57
2023-03-03T07:26:23.056Z,17.57
2023-03-03T07:28:57.556Z,18.07
2023-03-03T07:31:37.120Z,17.77
2023-03-03T07:34:19.054Z,16.33
2023-03-03T07:36:49.352Z,17.57
2023-03-03T07:39:32.297Z,15.47
2023-03-03T07:42:17.768Z,15.40
2023-03-03T07:44:49.103Z,15.60
2023-03-03T07:47:25.894Z,15.60
2023-03-03T07:50:00.128Z,16.47
2023-03-03T07:52:34.137Z,16.10
2023-03-03T07:55:21.584Z,17.30
2023-03-03T07:57:59.102Z,17.27
2023-03-03T08:01:12.844Z,17.53
2023-03-03T08:03:47.952Z,17.93
2023-03-03T08:06:47.529Z,18.13
2023-03-03T08:09:33.080Z,17.27
2023-03-03T08:12:15.028Z,19.03
2023-03-03T08:14:45.175Z,18.33
2023-03-03T08:17:20.627Z,20.87
2023-03-03T08:19:54.336Z,21.37
2023-03-03T08:22:33.449Z,19.57
2023-03-03T08:25:03.754Z,17.30
2023-03-03T08:27:33.678Z,18.90
2023-03-03T08:30:03.669Z,17.37
2023-03-03T08:32:33.770Z,17.13
2023-03-03T08:35:06.979Z,18.17
2023-03-03T08:37:37.158Z,18.37
2023-03-03T08:40:07.666Z,14.40
2023-03-03T08:42:37.703Z,16.70
2023-03-03T08:45:08.696Z,19.37
2023-03-03T08:47:39.258Z,18.70
2023-03-03T08:50:12.809Z,18.80
2023-03-03T08:52:43.455Z,17.57
2023-03-03T08:55:13.942Z,16.93
2023-03-03T08:57:44.206Z,15.43
2023-03-03T09:00:17.020Z,19.10
2023-03-03T09:02:47.287Z,20.83
2023-03-03T09:05:21.183Z,21.17
2023-03-03T09:07:52.384Z,20.33
2023-03-03T09:10:29.656Z,20.93
2023-03-03T09:13:02.031Z,17.37
2023-03-03T09:15:34.040Z,19.77
2023-03-03T09:18:16.958Z,18.17
2023-03-03T09:20:51.213Z,17.10
2023-03-03T09:23:37.288Z,15.27
2023-03-03T09:26:32.689Z,15.87
2023-03-03T09:29:13.312Z,15.60
2023-03-03T09:31:46.408Z,14.97
2023-03-03T09:34:23.877Z,14.07
2023-03-03T09:37:00.277Z,13.70
2023-03-03T09:39:33.847Z,14.93
2023-03-03T09:42:36.401Z,14.87
2023-03-03T09:45:24.029Z,15.77
2023-03-03T09:48:13.995Z,16.57
2023-03-03T09:50:55.246Z,17.27
2023-03-03T09:53:45.477Z,15.97
2023-03-03T09:56:22.663Z,14.77
2023-03-03T09:59:07.694Z,14.20
2023-03-03T10:01:53.581Z,14.23
2023-03-03T10:04:45.627Z,13.40
2023-03-03T10:07:31.196Z,14.53
2023-03-03T10:10:23.074Z,15.40
2023-03-03T10:13:09.616Z,15.40
2023-03-03T10:15:54.315Z,14.27
2023-03-03T10:18:33.852Z,14.00
2023-03-03T10:21:14.844Z,12.83
2023-03-03T10:23:59.315Z,15.80
2023-03-03T10:27:13.518Z,15.17
2023-03-03T10:29:56.735Z,13.60
2023-03-03T10:33:06.097Z,15.83
2023-03-03T10:36:05.844Z,14.63
2023-03-03T10:38:49.626Z,13.60
2023-03-03T10:41:33.966Z,15.30
2023-03-03T10:44:21.979Z,14.43
2023-03-03T10:47:05.441Z,13.30
2023-03-03T10:49:51.393Z,12.57
2023-03-03T10:52:34.383Z,14.47
2023-03-03T10:55:21.058Z,12.90
2023-03-03T10:58:03.322Z,13.43
2023-03-03T11:00:42.420Z,13.93
2023-03-03T11:03:50.310Z,14.07
2023-03-03T11:06:28.107Z,14.30
2023-03-03T11:09:03.060Z,13.43
2023-03-03T11:11:44.773Z,12.40
2023-03-03T11:14:19.437Z,14.10
2023-03-03T11:17:04.385Z,13.37
2023-03-03T11:19:46.764Z,13.43
2023-03-03T11:22:30.963Z,13.53
2023-03-03T11:25:11.596Z,12.83
2023-03-03T11:28:19.222Z,14.93
2023-03-03T11:31:03.671Z,13.73
2023-03-03T11:33:43.671Z,13.27
2023-03-03T11:36:19.415Z,12.87
2023-03-03T11:38:59.564Z,13.40
2023-03-03T11:41:43.652Z,13.47
2023-03-03T11:44:24.026Z,13.80
2023-03-03T11:46:59.893Z,15.80
2023-03-03T11:49:39.860Z,16.10
2023-03-03T11:52:25.112Z,15.00
2023-03-03T11:55:00.616Z,15.67
2023-03-03T11:57:35.970Z,15.83
2023-03-03T12:00:27.132Z,16.70
2023-03-03T12:03:20.039Z,17.63
2023-03-03T12:06:01.520Z,19.60
2023-03-03T12:08:44.120Z,18.47
2023-03-03T12:11:24.699Z,16.63
2023-03-03T12:14:01.473Z,14.87
2023-03-03T12:16:45.789Z,15.03
2023-03-03T12:19:28.308Z,16.10
2023-03-03T12:22:17.114Z,20.87
2023-03-03T12:25:20.920Z,16.17
2023-03-03T12:27:57.874Z,18.53
2023-03-03T12:30:56.077Z,15.40
2023-03-03T12:33:35.225Z,16.40
2023-03-03T12:36:18.936Z,14.83
2023-03-03T12:38:59.112Z,14.60
2023-03-03T12:41:38.715Z,15.37
2023-03-03T12:44:16.742Z,15.00
2023-03-03T12:46:49.673Z,15.63
2023-03-03T12:49:19.580Z,15.83
2023-03-03T12:52:09.164Z,16.00
2023-03-03T12:54:56.397Z,14.57
2023-03-03T12:57:35.661Z,15.33
2023-03-03T13:00:30.283Z,16.60
2023-03-03T13:03:09.603Z,15.37
2023-03-03T13:05:52.745Z,17.27
2023-03-03T13:08:40.869Z,17.77
2023-03-03T13:11:31.375Z,16.17
2023-03-03T13:14:11.575Z,16.90
2023-03-03T13:16:47.414Z,16.10
2023-03-03T13:19:23.242Z,15.33
2023-03-03T13:21:58.569Z,15.97
2023-03-03T13:24:37.553Z,18.53
2023-03-03T13:27:14.050Z,16.20
2023-03-03T13:29:45.660Z,13.67
2023-03-03T13:32:21.623Z,16.20
2023-03-03T13:34:58.257Z,21.83
2023-03-03T13:37:32.747Z,19.70
2023-03-03T13:40:08.670Z,19.43
2023-03-03T13:42:44.735Z,19.53
2023-03-03T13:45:26.657Z,20.80
2023-03-03T13:48:03.066Z,16.63
2023-03-03T13:50:38.311Z,17.37
2023-03-03T13:53:27.529Z,18.83
2023-03-03T13:56:04.392Z,18.77
2023-03-03T13:58:45.355Z,18.83
2023-03-03T14:01:21.512Z,17.83
2023-03-03T14:04:02.700Z,16.03
2023-03-03T14:06:33.371Z,16.13
2023-03-03T14:09:12.376Z,15.70
2023-03-03T14:11:50.049Z,15.63
2023-03-03T14:14:42.746Z,14.27
2023-03-03T14:17:19.545Z,13.63
2023-03-03T14:19:57.818Z,13.03
2023-03-03T14:22:36.740Z,12.13
2023-03-03T14:25:11.691Z,13.87
2023-03-03T14:27:44.070Z,14.10
2023-03-03T14:30:35.877Z,12.10
2023-03-03T14:33:18.845Z,13.00
2023-03-03T14:35:54.872Z,11.83
2023-03-03T14:38:27.923Z,10.67
2023-03-03T14:41:09.163Z,11.60
2023-03-03T14:43:40.673Z,11.83
2023-03-03T14:46:36.497Z,11.37
2023-03-03T14:49:09.079Z,12.27
2023-03-03T14:51:48.385Z,12.73
2023-03-03T14:54:25.245Z,13.03
2023-03-03T14:57:10.864Z,11.60
2023-03-03T14:59:40.942Z,10.70
2023-03-03T15:02:39.012Z,11.27
2023-03-03T15:05:33.015Z,10.87
2023-03-03T15:08:13.347Z,11.30
2023-03-03T15:10:45.124Z,10.23
2023-03-03T15:13:36.546Z,8.97
2023-03-03T15:16:15.040Z,8.80
2023-03-03T15:19:21.095Z,9.23
2023-03-03T15:22:03.682Z,8.30
2023-03-03T15:24:41.649Z,8.63
2023-03-03T15:27:20.580Z,8.00
2023-03-03T15:30:04.103Z,8.53
2023-03-03T15:32:40.948Z,8.43
2023-03-03T15:35:28.468Z,8.63
2023-03-03T15:38:05.821Z,8.03
2023-03-03T15:40:42.273Z,8.80
2023-03-03T15:43:23.457Z,7.93
2023-03-03T15:46:01.868Z,7.60
2023-03-03T15:49:03.697Z,7.53
2023-03-03T15:52:03.678Z,7.47
2023-03-03T15:54:45.408Z,7.13
2023-03-03T15:57:25.146Z,7.87
2023-03-03T16:00:12.129Z,7.43
2023-03-03T16:02:52.429Z,8.33
2023-03-03T16:05:26.628Z,7.97
2023-03-03T16:08:14.186Z,9.10
2023-03-03T16:10:55.481Z,8.57
2023-03-03T16:13:35.753Z,8.33
2023-03-03T16:16:15.839Z,7.93
2023-03-03T16:19:01.101Z,8.30
2023-03-03T16:21:53.544Z,7.90
2023-03-03T16:24:35.276Z,8.93
2023-03-03T16:27:15.975Z,8.33
2023-03-03T16:30:06.163Z,8.03
2023-03-03T16:32:43.766Z,8.27
2023-03-03T16:35:25.214Z,8.20
2023-03-03T16:38:01.208Z,9.73
2023-03-03T16:40:37.549Z,8.27
2023-03-03T16:43:21.879Z,9.13
2023-03-03T16:45:52.692Z,9.40
2023-03-03T16:48:35.490Z,9.00
2023-03-03T16:51:17.687Z,8.83
2023-03-03T16:53:57.212Z,8.70
2023-03-03T16:56:36.965Z,8.47
2023-03-03T16:59:24.028Z,9.73
2023-03-03T17:02:06.414Z,8.70
2023-03-03T17:04:46.263Z,8.90
2023-03-03T17:07:34.239Z,9.40
2023-03-03T17:10:19.666Z,9.00
2023-03-03T17:13:19.348Z,8.03
2023-03-03T17:16:03.088Z,7.73
2023-03-03T17:18:43.329Z,9.13
2023-03-03T17:21:23.325Z,8.23
2023-03-03T17:24:04.313Z,8.80
2023-03-03T17:26:46.036Z,8.07
2023-03-03T17:29:43.415Z,8.20
2023-03-03T17:32:28.586Z,8.33
2023-03-03T17:35:17.074Z,8.27
2023-03-03T17:37:57.121Z,7.93
2023-03-03T17:40:44.883Z,8.90
2023-03-03T17:43:20.229Z,8.03
2023-03-03T17:45:55.806Z,8.77
2023-03-03T17:48:50.888Z,8.67
2023-03-03T17:51:37.332Z,8.63
2023-03-03T17:54:31.176Z,8.33
2023-03-03T17:57:14.163Z,8.03
2023-03-03T18:00:09.624Z,7.73
2023-03-03T18:03:11.954Z,8.20
2023-03-03T18:06:15.904Z,8.43
2023-03-03T18:09:13.614Z,7.67
2023-03-03T18:12:00.961Z,7.73
2023-03-03T18:14:49.755Z,8.77
2023-03-03T18:17:38.367Z,8.47
2023-03-03T18:20:49.948Z,8.80
2023-03-03T18:23:34.148Z,7.87
2023-03-03T18:26:05.378Z,8.60
2023-03-03T18:28:49.784Z,10.40
2023-03-03T18:31:27.994Z,10.40
2023-03-03T18:34:10.031Z,9.80
2023-03-03T18:36:56.069Z,10.63
2023-03-03T18:39:45.710Z,10.53
2023-03-03T18:42:38.173Z,9.70
2023-03-03T18:45:44.030Z,9.07
2023-03-03T18:48:15.216Z,9.60
2023-03-03T18:50:47.424Z,9.53
2023-03-03T18:53:28.813Z,9.23
2023-03-03T18:56:00.743Z,9.73
2023-03-03T18:58:42.513Z,10.00
2023-03-03T19:01:39.253Z,10.23
2023-03-03T19:04:24.790Z,10.37
2023-03-03T19:07:13.539Z,9.03
2023-03-03T19:09:57.351Z,10.50
2023-03-03T19:12:46.776Z,10.90
2023-03-03T19:15:51.872Z,10.77
2023-03-03T19:18:25.826Z,11.43
2023-03-03T19:21:00.109Z,11.90
2023-03-03T19:23:52.772Z,9.80
2023-03-03T19:26:53.279Z,6.07
2023-03-03T19:29:53.134Z,6.20
2023-03-03T19:33:02.670Z,6.83
2023-03-03T19:35:41.644Z,6.87
2023-03-03T19:38:25.528Z,7.77
2023-03-03T19:41:01.581Z,7.10
2023-03-03T19:43:41.981Z,7.83
2023-03-03T19:46:30.014Z,7.37
2023-03-03T19:49:13.885Z,6.77
2023-03-03T19:51:53.255Z,7.43
2023-03-03T19:54:37.452Z,6.83
2023-03-03T19:57:14.437Z,7.57
2023-03-03T19:59:51.321Z,6.33
2023-03-03T20:02:37.903Z,5.77
2023-03-03T20:05:22.695Z,5.00
2023-03-03T20:08:00.155Z,4.53
2023-03-03T20:10:51.217Z,5.57
2023-03-03T20:13:58.122Z,4.83
2023-03-03T20:16:41.533Z,4.37
2023-03-03T20:19:27.838Z,4.00
2023-03-03T20:22:12.031Z,4.27
2023-03-03T20:24:57.792Z,3.90
2023-03-03T20:27:36.421Z,4.27
2023-03-03T20:30:13.366Z,4.20
2023-03-03T20:32:57.672Z,4.43
2023-03-03T20:35:40.019Z,4.97
2023-03-03T20:38:25.327Z,4.73
2023-03-03T20:41:06.320Z,4.80
2023-03-03T20:43:50.532Z,4.87
2023-03-03T20:46:25.963Z,4.70
2023-03-03T20:49:14.045Z,4.33
2023-03-03T20:51:50.089Z,4.73
2023-03-03T20:54:30.042Z,4.73
2023-03-03T20:57:09.137Z,4.60
2023-03-03T20:59:45.211Z,4.80
2023-03-03T21:02:23.707Z,4.67
2023-03-03T21:05:12.384Z,4.70
2023-03-03T21:07:53.878Z,4.73
2023-03-03T21:10:28.402Z,4.87
2023-03-03T21:13:01.118Z,4.70
2023-03-03T21:15:34.065Z,5.07
2023-03-03T21:18:22.467Z,4.80
2023-03-03T21:20:52.645Z,6.17
2023-03-03T21:23:23.466Z,6.60
2023-03-03T21:25:58.643Z,6.30
2023-03-03T21:28:30.706Z,7.17
2023-03-03T21:31:13.310Z,6.73
2023-03-03T21:33:54.783Z,6.30
2023-03-03T21:36:26.645Z,5.80
2023-03-03T21:38:58.552Z,5.63
2023-03-03T21:41:31.142Z,4.97
2023-03-03T21:44:00.925Z,4.87
2023-03-03T21:46:30.900Z,5.60
2023-03-03T21:49:00.656Z,5.57
2023-03-03T21:51:30.671Z,5.40
2023-03-03T21:54:00.513Z,5.37
2023-03-03T21:56:35.169Z,5.00
2023-03-03T21:59:04.976Z,5.43
2023-03-03T22:01:37.740Z,4.93
2023-03-03T22:04:08.671Z,4.47
2023-03-03T22:06:39.893Z,3.37
2023-03-03T22:09:10.629Z,3.87
2023-03-03T22:11:43.378Z,3.50
2023-03-03T22:14:13.278Z,3.77
2023-03-03T22:16:43.292Z,4.20
2023-03-03T22:19:13.168Z,4.20
2023-03-03T22:21:43.877Z,3.80
2023-03-03T22:24:13.791Z,3.90
2023-03-03T22:26:46.707Z,3.90
2023-03-03T22:29:17.252Z,3.30
2023-03-03T22:31:47.185Z,3.53
2023-03-03T22:34:17.995Z,3.30
2023-03-03T22:36:47.741Z,3.27
2023-03-03T22:39:17.570Z,3.00
2023-03-03T22:41:49.921Z,2.97
2023-03-03T22:44:19.891Z,2.60
2023-03-03T22:46:49.628Z,3.30
2023-03-03T22:49:19.541Z,2.53
2023-03-03T22:51:49.356Z,3.13
2023-03-03T22:54:19.141Z,2.93
2023-03-03T22:56:51.806Z,3.23
2023-03-03T22:59:22.196Z,3.17
2023-03-03T23:01:52.022Z,3.20
2023-03-03T23:04:21.891Z,3.27
2023-03-03T23:06:52.004Z,3.00
2023-03-03T23:09:21.850Z,2.90
2023-03-03T23:11:54.810Z,3.33
2023-03-03T23:14:24.577Z,3.03
2023-03-03T23:16:54.588Z,2.83
2023-03-03T23:19:24.496Z,3.37
2023-03-03T23:21:54.420Z,2.77
2023-03-03T23:24:24.208Z,2.70
2023-03-03T23:26:58.197Z,2.90
2023-03-03T23:29:28.272Z,2.90
2023-03-03T23:31:58.030Z,3.10
2023-03-03T23:34:27.984Z,3.00
2023-03-03T23:36:57.968Z,2.57
2023-03-03T23:39:28.057Z,2.30
2023-03-03T23:42:00.453Z,2.77
2023-03-03T23:44:30.237Z,3.17
2023-03-03T23:47:00.052Z,3.10
2023-03-03T23:49:29.928Z,2.70
2023-03-03T23:51:59.680Z,3.03
2023-03-03T23:54:29.994Z,3.17
2023-03-03T23:57:02.483Z,2.63
2023-03-03T23:59:32.427Z,2.37
